CheckWX is a tool to help pilots better visualize weather data.  It is not intended as a substitute for an official pre-flight weather briefing.

18:10:27 UTC

EDDB METAR
Berlin-Schönefeld International Airport
Berlin, Germany
Current

20 mins ago

EDDB 181750Z 25004KT CAVOK 21/20 Q1006 NOSIG
Observed
Aug-18 @ 17:50 UTC
Wind
  • 250° at 4 KTS
Visibility
10,000+ meters
Flight Rules
VFR
Cloud Levels
  • Clear skies
Temperature
21°C / 70°F
Dewpoint
20°C / 68°F
Humidity
94%
Altimeter
29.7" Hg
Pressure
1005.92 hPa
Previous

50 mins ago

EDDB 181720Z 30004KT 280V340 9999 FEW062CB 22/20 Q1006 NOSIG
Observed
Aug-18 @ 17:20 UTC
Wind
  • 300° at 4 KTS
Visibility
10,000+ meters
Flight Rules
VFR
Cloud Levels
  • Few at 6,200' AGL
Temperature
22°C / 72°F
Dewpoint
20°C / 68°F
Humidity
88%
Altimeter
29.7" Hg
Pressure
1005.92 hPa
Previous

1 hour ago

EDDB 181650Z 27009KT 230V330 9999 FEW018 SCT066CB 22/20 Q1006 RESHRA NOSIG
Observed
Aug-18 @ 16:50 UTC
Wind
  • 270° at 9 KTS
Visibility
10,000+ meters
Flight Rules
VFR
Cloud Levels
  • Few at 1,800' AGL
  • Scattered at 6,600' AGL
Temperature
22°C / 72°F
Dewpoint
20°C / 68°F
Humidity
88%
Altimeter
29.7" Hg
Pressure
1005.92 hPa